createdAt,value
2018-08-19T00:00:37.929Z,6.40
2018-08-19T00:03:04.245Z,6.23
2018-08-19T00:05:31.293Z,6.50
2018-08-19T00:07:57.547Z,5.93
2018-08-19T00:10:23.869Z,8.50
2018-08-19T00:12:50.872Z,6.27
2018-08-19T00:15:17.182Z,7.50
2018-08-19T00:17:43.450Z,6.60
2018-08-19T00:20:09.752Z,6.83
2018-08-19T00:22:36.014Z,6.60
2018-08-19T00:25:02.325Z,7.20
2018-08-19T00:27:28.572Z,7.83
2018-08-19T00:29:54.844Z,7.40
2018-08-19T00:32:21.087Z,7.40
2018-08-19T00:34:47.386Z,7.10
2018-08-19T00:37:14.382Z,6.87
2018-08-19T00:39:40.661Z,6.53
2018-08-19T00:42:07.709Z,6.30
2018-08-19T00:44:34.728Z,6.73
2018-08-19T00:47:00.999Z,5.93
2018-08-19T00:49:28.044Z,7.00
2018-08-19T00:51:55.074Z,7.00
2018-08-19T00:54:21.422Z,6.53
2018-08-19T00:56:48.445Z,7.00
2018-08-19T00:59:14.740Z,6.90
2018-08-19T01:01:41.005Z,6.90
2018-08-19T01:04:07.294Z,6.23
2018-08-19T01:06:33.582Z,6.70
2018-08-19T01:09:00.580Z,6.50
2018-08-19T01:11:26.901Z,6.93
2018-08-19T01:13:53.186Z,6.37
2018-08-19T01:16:19.493Z,7.33
2018-08-19T01:18:45.793Z,6.60
2018-08-19T01:21:12.113Z,7.00
2018-08-19T01:23:38.360Z,7.67
2018-08-19T01:26:04.684Z,7.53
2018-08-19T01:28:30.967Z,7.10
2018-08-19T01:30:57.257Z,9.50
2018-08-19T01:33:23.580Z,7.27
2018-08-19T01:35:49.883Z,7.23
2018-08-19T01:38:16.873Z,6.70
2018-08-19T01:40:43.187Z,7.33
2018-08-19T01:43:09.432Z,6.60
2018-08-19T01:45:35.717Z,7.93
2018-08-19T01:48:02.730Z,8.10
2018-08-19T01:50:28.996Z,6.70
2018-08-19T01:52:55.990Z,8.77
2018-08-19T01:55:22.277Z,8.13
2018-08-19T01:57:49.257Z,7.83
2018-08-19T02:00:15.554Z,6.93
2018-08-19T02:02:41.841Z,8.30
2018-08-19T02:05:08.135Z,6.93
2018-08-19T02:07:34.394Z,7.23
2018-08-19T02:10:00.709Z,8.00
2018-08-19T02:12:27.025Z,7.90
2018-08-19T02:14:53.314Z,8.47
2018-08-19T02:17:20.347Z,7.43
2018-08-19T02:19:46.615Z,7.63
2018-08-19T02:22:13.657Z,7.87
2018-08-19T02:24:40.658Z,8.30
2018-08-19T02:27:06.981Z,7.47
2018-08-19T02:29:33.250Z,7.90
2018-08-19T02:31:59.563Z,7.90
2018-08-19T02:34:27.545Z,8.43
2018-08-19T02:36:53.837Z,7.13
2018-08-19T02:39:20.106Z,7.37
2018-08-19T02:41:46.448Z,8.63
2018-08-19T02:44:12.686Z,8.73
2018-08-19T02:46:39.019Z,8.00
2018-08-19T02:49:05.277Z,7.27
2018-08-19T02:51:32.314Z,8.50
2018-08-19T02:53:58.552Z,9.17
2018-08-19T02:56:25.595Z,8.87
2018-08-19T02:58:52.593Z,7.80
2018-08-19T03:01:18.897Z,8.90
2018-08-19T03:03:55.199Z,8.53
2018-08-19T03:06:21.500Z,9.17
2018-08-19T03:08:47.770Z,8.23
2018-08-19T03:11:14.093Z,7.60
2018-08-19T03:13:40.376Z,8.10
2018-08-19T03:16:06.660Z,7.93
2018-08-19T03:18:32.903Z,8.27
2018-08-19T03:20:59.194Z,8.17
2018-08-19T03:23:25.430Z,7.70
2018-08-19T03:25:51.737Z,7.80
2018-08-19T03:28:18.725Z,8.00
2018-08-19T03:30:44.998Z,7.60
2018-08-19T03:33:11.290Z,8.20
2018-08-19T03:35:37.530Z,8.50
2018-08-19T03:38:03.934Z,8.07
2018-08-19T03:40:30.150Z,8.50
2018-08-19T03:42:56.421Z,8.07
2018-08-19T03:45:22.660Z,8.17
2018-08-19T03:47:48.945Z,8.20
2018-08-19T03:50:15.249Z,7.73
2018-08-19T03:52:42.314Z,8.10
2018-08-19T03:55:08.632Z,9.00
2018-08-19T03:57:35.665Z,7.87
2018-08-19T04:00:01.932Z,7.80
2018-08-19T04:02:28.229Z,8.17
2018-08-19T04:04:54.480Z,8.27
2018-08-19T04:07:20.753Z,7.40
2018-08-19T04:09:46.989Z,7.90
2018-08-19T04:12:13.330Z,8.40
2018-08-19T04:14:39.582Z,8.13
2018-08-19T04:17:05.873Z,7.83
2018-08-19T04:19:32.137Z,8.50
2018-08-19T04:21:58.432Z,8.90
2018-08-19T04:24:24.698Z,9.27
2018-08-19T04:26:52.655Z,8.03
2018-08-19T04:29:19.717Z,8.90
2018-08-19T04:31:45.992Z,8.60
2018-08-19T04:34:12.246Z,8.90
2018-08-19T04:36:38.536Z,9.67
2018-08-19T04:39:05.571Z,8.53
2018-08-19T04:41:31.834Z,9.67
2018-08-19T04:43:58.155Z,9.30
2018-08-19T04:46:24.409Z,9.47
2018-08-19T04:49:34.049Z,8.70
2018-08-19T04:52:01.185Z,8.80
2018-08-19T04:54:28.220Z,8.30
2018-08-19T04:56:54.488Z,9.63
2018-08-19T04:59:20.782Z,7.53
2018-08-19T05:01:47.027Z,8.43
2018-08-19T05:04:14.035Z,9.00
2018-08-19T05:06:40.273Z,8.87
2018-08-19T05:09:06.591Z,9.60
2018-08-19T05:11:32.832Z,8.80
2018-08-19T05:13:59.161Z,8.67
2018-08-19T05:16:25.428Z,8.60
2018-08-19T05:18:52.483Z,9.37
2018-08-19T05:21:19.482Z,9.43
2018-08-19T05:23:45.802Z,9.20
2018-08-19T05:26:12.065Z,8.70
2018-08-19T05:28:38.346Z,8.60
2018-08-19T05:31:04.642Z,8.80
2018-08-19T05:33:31.620Z,8.83
2018-08-19T05:35:57.912Z,10.50
2018-08-19T05:38:24.166Z,10.30
2018-08-19T05:40:50.462Z,9.07
2018-08-19T05:43:16.704Z,10.37
2018-08-19T05:45:42.981Z,9.00
2018-08-19T05:48:09.353Z,8.53
2018-08-19T05:50:35.668Z,8.83
2018-08-19T05:53:01.977Z,9.47
2018-08-19T05:55:28.261Z,10.30
2018-08-19T05:57:54.549Z,9.30
2018-08-19T06:00:20.842Z,9.10
2018-08-19T06:02:47.877Z,10.73
2018-08-19T06:05:14.145Z,9.27
2018-08-19T06:07:40.543Z,8.23
2018-08-19T06:10:06.733Z,9.03
2018-08-19T06:12:33.065Z,7.83
2018-08-19T06:15:00.372Z,7.67
2018-08-19T06:17:27.438Z,9.40
2018-08-19T06:19:55.740Z,7.33
2018-08-19T06:22:22.058Z,9.33
2018-08-19T06:24:49.052Z,8.07
2018-08-19T06:27:15.353Z,6.80
2018-08-19T06:29:41.656Z,7.63
2018-08-19T06:32:07.958Z,7.97
2018-08-19T06:34:34.321Z,7.73
2018-08-19T06:37:01.254Z,6.80
2018-08-19T06:39:27.498Z,7.40
2018-08-19T06:41:54.528Z,7.63
2018-08-19T06:44:20.773Z,7.53
2018-08-19T06:46:47.052Z,8.20
2018-08-19T06:49:13.330Z,8.00
2018-08-19T06:51:39.630Z,8.63
2018-08-19T06:54:05.896Z,7.40
2018-08-19T06:56:32.158Z,7.37
2018-08-19T06:58:58.470Z,7.67
2018-08-19T07:01:25.501Z,7.23
2018-08-19T07:03:52.643Z,8.73
2018-08-19T07:06:18.841Z,7.83
2018-08-19T07:08:47.680Z,8.93
2018-08-19T07:11:13.935Z,7.83
2018-08-19T07:13:40.970Z,7.73
2018-08-19T07:16:07.238Z,7.17
2018-08-19T07:18:33.551Z,8.10
2018-08-19T07:21:00.671Z,7.13
2018-08-19T07:23:27.199Z,7.47
2018-08-19T07:25:53.464Z,7.50
2018-08-19T07:28:20.482Z,7.00
2018-08-19T07:30:48.373Z,6.53
2018-08-19T07:33:18.206Z,8.67
2018-08-19T07:35:44.953Z,8.97
2018-08-19T07:38:13.721Z,7.67
2018-08-19T07:40:42.456Z,6.30
2018-08-19T07:43:12.544Z,6.50
2018-08-19T07:45:38.796Z,7.20
2018-08-19T07:48:07.687Z,8.27
2018-08-19T07:50:36.917Z,6.90
2018-08-19T07:53:06.781Z,6.73
2018-08-19T07:55:37.176Z,6.57
2018-08-19T07:58:06.914Z,7.00
2018-08-19T08:00:33.237Z,6.57
2018-08-19T08:02:59.550Z,6.63
2018-08-19T08:05:26.976Z,11.80
2018-08-19T08:07:53.626Z,15.20
2018-08-19T08:10:19.909Z,8.50
2018-08-19T08:12:46.984Z,6.97
2018-08-19T08:15:13.558Z,6.80
2018-08-19T08:17:40.155Z,7.33
2018-08-19T08:20:06.749Z,6.70
2018-08-19T08:22:33.004Z,6.50
2018-08-19T08:25:00.433Z,7.77
2018-08-19T08:27:26.700Z,5.60
2018-08-19T08:29:52.992Z,5.40
2018-08-19T08:32:19.270Z,6.53
2018-08-19T08:34:45.569Z,6.10
2018-08-19T08:37:11.854Z,5.93
2018-08-19T08:39:38.136Z,5.90
2018-08-19T08:42:05.132Z,6.10
2018-08-19T08:44:31.423Z,6.27
2018-08-19T08:46:58.437Z,5.43
2018-08-19T08:49:24.877Z,6.10
2018-08-19T08:51:51.253Z,8.53
2018-08-19T08:54:17.977Z,5.60
2018-08-19T08:56:45.337Z,6.47
2018-08-19T08:59:12.780Z,5.13
2018-08-19T09:01:41.062Z,4.83
2018-08-19T09:04:07.465Z,4.20
2018-08-19T09:06:33.937Z,4.40
2018-08-19T09:09:01.263Z,4.67
2018-08-19T09:11:27.914Z,5.87
2018-08-19T09:14:00.541Z,4.10
2018-08-19T09:16:27.171Z,4.20
2018-08-19T09:18:53.673Z,3.77
2018-08-19T09:21:19.917Z,4.40
2018-08-19T09:23:46.951Z,4.03
2018-08-19T09:26:13.201Z,3.83
2018-08-19T09:28:40.181Z,4.37
2018-08-19T09:31:06.848Z,4.10
2018-08-19T09:33:33.223Z,3.70
2018-08-19T09:35:59.565Z,3.87
2018-08-19T09:38:25.834Z,3.70
2018-08-19T09:40:52.404Z,3.43
2018-08-19T09:43:19.705Z,4.10
2018-08-19T09:45:46.009Z,3.83
2018-08-19T09:48:14.041Z,4.17
2018-08-19T09:50:40.354Z,3.90
2018-08-19T09:53:06.628Z,3.90
2018-08-19T09:55:33.017Z,5.50
2018-08-19T09:57:59.345Z,4.30
2018-08-19T10:00:25.671Z,4.13
2018-08-19T10:02:51.997Z,5.40
2018-08-19T10:05:18.302Z,5.87
2018-08-19T10:07:45.313Z,7.20
2018-08-19T10:10:11.619Z,6.23
2018-08-19T10:12:37.943Z,4.20
2018-08-19T10:15:04.644Z,15.23
2018-08-19T10:17:30.903Z,4.70
2018-08-19T10:19:57.214Z,3.70
2018-08-19T10:22:24.303Z,3.10
2018-08-19T10:24:50.606Z,4.80
2018-08-19T10:27:16.849Z,4.03
2018-08-19T10:29:43.122Z,3.70
2018-08-19T10:32:09.425Z,4.03
2018-08-19T10:34:35.682Z,3.40
2018-08-19T10:37:02.020Z,3.30
2018-08-19T10:39:28.257Z,3.40
2018-08-19T10:41:54.577Z,2.97
2018-08-19T10:44:20.805Z,3.97
2018-08-19T10:46:47.093Z,3.37
2018-08-19T10:49:13.330Z,3.23
2018-08-19T10:51:39.700Z,2.60
2018-08-19T10:54:05.975Z,3.37
2018-08-19T10:56:32.283Z,3.23
2018-08-19T10:58:58.550Z,2.83
2018-08-19T11:01:24.872Z,2.47
2018-08-19T11:03:51.170Z,3.40
2018-08-19T11:06:17.573Z,3.70
2018-08-19T11:08:43.849Z,2.50
2018-08-19T11:11:10.170Z,3.53
2018-08-19T11:13:36.445Z,3.03
2018-08-19T11:16:02.764Z,4.70
2018-08-19T11:18:29.028Z,2.70
2018-08-19T11:20:55.382Z,3.70
2018-08-19T11:23:21.688Z,6.07
2018-08-19T11:25:47.992Z,3.30
2018-08-19T11:28:14.278Z,3.53
2018-08-19T11:30:40.625Z,3.27
2018-08-19T11:33:06.893Z,2.93
2018-08-19T11:35:33.925Z,3.23
2018-08-19T11:38:00.209Z,2.53
2018-08-19T11:40:26.478Z,4.23
2018-08-19T11:42:52.765Z,2.67
2018-08-19T11:45:19.212Z,2.83
2018-08-19T11:47:45.536Z,2.80
2018-08-19T11:50:11.814Z,3.20
2018-08-19T11:52:38.129Z,2.90
2018-08-19T11:55:04.390Z,3.20
2018-08-19T11:57:31.412Z,2.70
2018-08-19T11:59:57.653Z,2.80
2018-08-19T12:02:24.690Z,2.97
2018-08-19T12:04:50.994Z,2.97
2018-08-19T12:07:17.309Z,4.50
2018-08-19T12:09:43.725Z,3.10
2018-08-19T12:12:09.989Z,3.00
2018-08-19T12:14:36.254Z,2.97
2018-08-19T12:17:02.649Z,2.70
2018-08-19T12:19:28.793Z,3.37
2018-08-19T12:21:55.099Z,3.20
2018-08-19T12:24:21.382Z,3.50
2018-08-19T12:26:47.685Z,3.67
2018-08-19T12:29:13.918Z,3.50
2018-08-19T12:31:40.209Z,3.47
2018-08-19T12:34:06.528Z,3.57
2018-08-19T12:36:32.803Z,3.90
2018-08-19T12:38:59.081Z,3.17
2018-08-19T12:41:26.103Z,3.17
2018-08-19T12:43:52.409Z,3.73
2018-08-19T12:46:18.689Z,4.87
2018-08-19T12:48:45.012Z,3.70
2018-08-19T12:51:11.257Z,3.80
2018-08-19T12:53:37.646Z,3.60
2018-08-19T12:56:08.693Z,4.70
2018-08-19T12:58:35.045Z,3.10
2018-08-19T13:01:01.317Z,3.40
2018-08-19T13:03:27.610Z,3.37
2018-08-19T13:05:53.937Z,3.83
2018-08-19T13:08:20.978Z,13.73
2018-08-19T13:10:47.258Z,4.30
2018-08-19T13:13:13.542Z,4.50
2018-08-19T13:15:39.825Z,5.43
2018-08-19T13:18:06.105Z,4.03
2018-08-19T13:20:32.392Z,3.80
2018-08-19T13:22:58.772Z,3.97
2018-08-19T13:25:24.948Z,4.90
2018-08-19T13:27:51.240Z,4.53
2018-08-19T13:30:17.544Z,3.30
2018-08-19T13:32:43.836Z,3.90
2018-08-19T13:35:10.074Z,4.10
2018-08-19T13:37:36.708Z,3.97
2018-08-19T13:40:02.994Z,3.87
2018-08-19T13:42:29.294Z,3.90
2018-08-19T13:44:55.592Z,3.57
2018-08-19T13:47:21.868Z,4.00
2018-08-19T13:49:48.189Z,3.30
2018-08-19T13:52:14.441Z,3.50
2018-08-19T13:54:41.492Z,3.57
2018-08-19T13:57:08.510Z,3.50
2018-08-19T13:59:34.773Z,3.53
2018-08-19T14:02:01.777Z,3.13
2018-08-19T14:04:28.048Z,3.30
2018-08-19T14:06:55.044Z,2.83
2018-08-19T14:09:21.334Z,3.70
2018-08-19T14:11:47.601Z,3.50
2018-08-19T14:14:13.887Z,3.37
2018-08-19T14:16:40.113Z,3.17
2018-08-19T14:19:06.418Z,5.70
2018-08-19T14:21:32.682Z,3.27
2018-08-19T14:23:58.956Z,3.37
2018-08-19T14:26:25.186Z,3.20
2018-08-19T14:28:51.476Z,3.93
2018-08-19T14:31:17.717Z,4.37
2018-08-19T14:33:43.977Z,3.30
2018-08-19T14:36:10.230Z,3.20
2018-08-19T14:38:36.497Z,3.40
2018-08-19T14:41:02.839Z,3.37
2018-08-19T14:43:29.155Z,3.47
2018-08-19T14:45:55.421Z,3.67
2018-08-19T14:48:21.699Z,3.07
2018-08-19T14:50:47.933Z,3.43
2018-08-19T14:53:14.210Z,3.70
2018-08-19T14:55:40.458Z,3.27
2018-08-19T14:58:06.698Z,4.07
2018-08-19T15:00:32.994Z,3.50
2018-08-19T15:02:59.256Z,3.20
2018-08-19T15:05:25.557Z,3.60
2018-08-19T15:07:53.199Z,3.90
2018-08-19T15:10:19.689Z,3.17
2018-08-19T15:12:46.129Z,4.07
2018-08-19T15:15:12.808Z,4.23
2018-08-19T15:17:39.603Z,4.13
2018-08-19T15:20:06.910Z,3.20
2018-08-19T15:22:33.698Z,3.60
2018-08-19T15:25:00.083Z,3.63
2018-08-19T15:27:26.386Z,3.77
2018-08-19T15:29:53.373Z,4.17
2018-08-19T15:32:21.931Z,4.03
2018-08-19T15:34:49.578Z,3.20
2018-08-19T15:37:15.865Z,4.10
2018-08-19T15:39:42.162Z,4.37
2018-08-19T15:42:09.893Z,4.20
2018-08-19T15:44:36.266Z,4.30
2018-08-19T15:47:02.527Z,3.20
2018-08-19T15:49:29.780Z,3.87
2018-08-19T15:51:56.123Z,5.30
2018-08-19T15:54:22.431Z,3.40
2018-08-19T15:56:48.686Z,4.13
2018-08-19T15:59:14.991Z,3.47
2018-08-19T16:01:42.249Z,4.13
2018-08-19T16:04:08.577Z,3.63
2018-08-19T16:06:35.663Z,3.67
2018-08-19T16:09:02.018Z,3.17
2018-08-19T16:11:29.322Z,3.47
2018-08-19T16:13:55.653Z,3.27
2018-08-19T16:16:22.206Z,3.27
2018-08-19T16:18:48.548Z,3.63
2018-08-19T16:21:15.106Z,3.47
2018-08-19T16:23:41.363Z,3.57
2018-08-19T16:26:07.650Z,3.83
2018-08-19T16:28:33.998Z,3.23
2018-08-19T16:31:00.301Z,3.77
2018-08-19T16:33:26.570Z,3.50
2018-08-19T16:35:53.527Z,3.20
2018-08-19T16:38:20.538Z,3.77
2018-08-19T16:40:46.825Z,3.97
2018-08-19T16:43:13.565Z,3.13
2018-08-19T16:45:41.002Z,2.83
2018-08-19T16:48:08.130Z,3.63
2018-08-19T16:50:34.540Z,3.43
2018-08-19T16:53:01.493Z,3.77
2018-08-19T16:55:27.776Z,3.00
2018-08-19T16:57:54.284Z,5.40
2018-08-19T17:00:20.617Z,3.37
2018-08-19T17:02:46.938Z,3.53
2018-08-19T17:05:13.246Z,4.87
2018-08-19T17:07:39.501Z,3.73
2018-08-19T17:10:05.815Z,3.00
2018-08-19T17:12:32.068Z,4.23
2018-08-19T17:14:58.368Z,3.00
2018-08-19T17:17:24.640Z,3.20
2018-08-19T17:19:50.894Z,3.63
2018-08-19T17:22:17.251Z,4.70
2018-08-19T17:24:44.193Z,2.53
2018-08-19T17:27:10.488Z,2.97
2018-08-19T17:29:37.473Z,3.77
2018-08-19T17:32:03.765Z,3.27
2018-08-19T17:34:30.748Z,2.67
2018-08-19T17:36:57.045Z,3.30
2018-08-19T17:39:24.091Z,4.10
2018-08-19T17:41:50.348Z,4.10
2018-08-19T17:44:16.596Z,3.40
2018-08-19T17:46:43.768Z,3.60
2018-08-19T17:49:12.138Z,3.73
2018-08-19T17:51:40.562Z,4.53
2018-08-19T17:54:10.081Z,5.20
2018-08-19T17:56:37.131Z,5.97
2018-08-19T17:59:09.061Z,2.90
2018-08-19T18:01:36.404Z,3.13
2018-08-19T18:04:04.581Z,2.93
2018-08-19T18:06:31.716Z,3.40
2018-08-19T18:09:02.743Z,2.93
2018-08-19T18:11:34.632Z,3.00
2018-08-19T18:14:04.343Z,2.97
2018-08-19T18:16:35.519Z,3.40
2018-08-19T18:19:03.505Z,3.47
2018-08-19T18:21:31.969Z,3.63
2018-08-19T18:24:01.466Z,2.63
2018-08-19T18:26:29.071Z,4.07
2018-08-19T18:28:58.061Z,4.20
2018-08-19T18:31:24.651Z,4.40
2018-08-19T18:33:50.954Z,5.77
2018-08-19T18:36:18.106Z,4.47
2018-08-19T18:38:47.280Z,3.83
2018-08-19T18:41:19.040Z,3.60
2018-08-19T18:43:47.881Z,4.10
2018-08-19T18:46:14.760Z,4.03
2018-08-19T18:48:44.028Z,3.50
2018-08-19T18:51:11.231Z,3.37
2018-08-19T18:53:43.596Z,3.47
2018-08-19T18:56:16.079Z,3.07
2018-08-19T18:58:44.970Z,3.63
2018-08-19T19:01:12.701Z,4.60
2018-08-19T19:03:42.630Z,4.13
2018-08-19T19:06:10.487Z,4.77
2018-08-19T19:08:40.305Z,4.40
2018-08-19T19:11:09.500Z,5.13
2018-08-19T19:13:36.457Z,4.10
2018-08-19T19:16:06.558Z,3.70
2018-08-19T19:18:36.417Z,4.03
2018-08-19T19:21:04.719Z,3.70
2018-08-19T19:23:36.226Z,5.97
2018-08-19T19:26:05.634Z,4.90
2018-08-19T19:28:37.804Z,4.30
2018-08-19T19:31:08.198Z,4.00
2018-08-19T19:33:34.851Z,9.13
2018-08-19T19:36:02.591Z,9.43
2018-08-19T19:38:40.940Z,6.83
2018-08-19T19:41:10.625Z,4.93
2018-08-19T19:43:38.611Z,4.60
2018-08-19T19:46:08.835Z,4.50
2018-08-19T19:48:36.923Z,4.43
2018-08-19T19:51:10.827Z,4.50
2018-08-19T19:53:43.212Z,4.10
2018-08-19T19:56:13.742Z,4.47
2018-08-19T19:58:41.968Z,4.27
2018-08-19T20:01:15.962Z,4.07
2018-08-19T20:03:49.941Z,5.10
2018-08-19T20:06:19.537Z,6.43
2018-08-19T20:08:52.404Z,5.03
2018-08-19T20:11:23.053Z,3.77
2018-08-19T20:13:51.048Z,5.00
2018-08-19T20:16:19.085Z,3.80
2018-08-19T20:18:47.723Z,4.30
2018-08-19T20:21:16.240Z,4.00
2018-08-19T20:23:46.407Z,5.37
2018-08-19T20:26:13.603Z,4.10
2018-08-19T20:28:40.904Z,3.77
2018-08-19T20:31:08.066Z,4.03
2018-08-19T20:33:35.230Z,6.10
2018-08-19T20:36:03.362Z,4.73
2018-08-19T20:38:30.578Z,5.33
2018-08-19T20:40:56.938Z,3.70
2018-08-19T20:43:24.006Z,4.20
2018-08-19T20:45:50.345Z,4.83
2018-08-19T20:48:17.391Z,4.17
2018-08-19T20:50:43.691Z,4.60
2018-08-19T20:53:09.978Z,5.73
2018-08-19T20:55:36.247Z,5.20
2018-08-19T20:58:02.558Z,4.30
2018-08-19T21:00:28.985Z,5.67
2018-08-19T21:02:55.336Z,4.53
2018-08-19T21:05:21.592Z,5.10
2018-08-19T21:07:48.649Z,4.87
2018-08-19T21:10:15.637Z,4.73
2018-08-19T21:12:41.945Z,4.77
2018-08-19T21:15:08.192Z,4.30
2018-08-19T21:17:34.509Z,4.33
2018-08-19T21:20:00.802Z,4.97
2018-08-19T21:22:27.156Z,5.20
2018-08-19T21:24:54.134Z,4.60
2018-08-19T21:27:20.428Z,5.40
2018-08-19T21:29:47.607Z,5.13
2018-08-19T21:32:13.833Z,5.17
2018-08-19T21:34:40.829Z,4.67
2018-08-19T21:37:07.355Z,4.37
2018-08-19T21:39:33.590Z,5.10
2018-08-19T21:41:59.893Z,4.80
2018-08-19T21:44:26.178Z,5.17
2018-08-19T21:46:53.132Z,4.90
2018-08-19T21:49:19.973Z,4.70
2018-08-19T21:51:46.371Z,5.17
2018-08-19T21:54:12.625Z,5.77
2018-08-19T21:56:39.655Z,5.03
2018-08-19T21:59:08.101Z,5.40
2018-08-19T22:01:34.367Z,7.60
2018-08-19T22:04:00.669Z,5.03
2018-08-19T22:06:26.942Z,6.50
2018-08-19T22:08:54.002Z,6.50
2018-08-19T22:11:21.126Z,5.23
2018-08-19T22:13:47.533Z,5.03
2018-08-19T22:16:13.825Z,6.13
2018-08-19T22:18:40.235Z,5.30
2018-08-19T22:21:06.569Z,6.17
2018-08-19T22:23:33.980Z,6.30
2018-08-19T22:26:01.045Z,6.30
2018-08-19T22:28:27.350Z,6.57
2018-08-19T22:30:53.598Z,6.97
2018-08-19T22:33:19.892Z,6.23
2018-08-19T22:35:46.996Z,7.07
2018-08-19T22:38:13.316Z,6.63
2018-08-19T22:40:39.637Z,6.63
2018-08-19T22:43:05.942Z,6.97
2018-08-19T22:45:32.192Z,7.77
2018-08-19T22:47:58.507Z,6.73
2018-08-19T22:50:24.797Z,6.70
2018-08-19T22:52:51.105Z,7.93
2018-08-19T22:55:17.457Z,7.17
2018-08-19T22:57:43.815Z,7.50
2018-08-19T23:00:10.893Z,10.10
2018-08-19T23:02:37.244Z,7.90
2018-08-19T23:05:03.598Z,8.00
2018-08-19T23:07:29.867Z,7.03
2018-08-19T23:09:56.905Z,7.90
2018-08-19T23:12:23.977Z,7.40
2018-08-19T23:15:12.346Z,7.90
2018-08-19T23:17:38.676Z,7.80
2018-08-19T23:20:04.946Z,7.27
2018-08-19T23:22:31.220Z,8.43
2018-08-19T23:24:57.466Z,10.07
2018-08-19T23:27:23.757Z,7.73
2018-08-19T23:29:50.744Z,8.70
2018-08-19T23:32:17.038Z,8.00
2018-08-19T23:37:16.323Z,7.43
2018-08-19T23:39:42.629Z,9.80
2018-08-19T23:42:08.927Z,7.73
2018-08-19T23:44:35.212Z,7.87
2018-08-19T23:47:01.510Z,9.40
2018-08-19T23:49:27.770Z,8.10
2018-08-19T23:51:54.057Z,9.43
2018-08-19T23:54:20.423Z,8.27
2018-08-19T23:56:46.701Z,7.20
2018-08-19T23:59:13.753Z,7.97
